sensor_id;sensor_type;location;lat;lon;timestamp;pressure;altitude;pressure_sealevel;temperature;humidity
12963;BME280;6546;49.882;8.666;2022-09-16T00:00:57;99313.69;;;16.56;76.34
12963;BME280;6546;49.882;8.666;2022-09-16T00:03:23;99312.69;;;16.60;74.76
12963;BME280;6546;49.882;8.666;2022-09-16T00:05:51;99313.44;;;16.65;74.47
12963;BME280;6546;49.882;8.666;2022-09-16T00:08:20;99314.44;;;16.59;77.21
12963;BME280;6546;49.882;8.666;2022-09-16T00:10:47;99317.88;;;16.61;73.94
12963;BME280;6546;49.882;8.666;2022-09-16T00:13:14;99311.91;;;16.58;74.40
12963;BME280;6546;49.882;8.666;2022-09-16T00:15:42;99306.28;;;16.42;79.79
12963;BME280;6546;49.882;8.666;2022-09-16T00:18:09;99303.91;;;16.34;80.32
12963;BME280;6546;49.882;8.666;2022-09-16T00:20:36;99296.69;;;16.42;79.26
12963;BME280;6546;49.882;8.666;2022-09-16T00:23:07;99300.16;;;16.43;81.36
12963;BME280;6546;49.882;8.666;2022-09-16T00:25:35;99302.16;;;16.35;82.15
12963;BME280;6546;49.882;8.666;2022-09-16T00:28:01;99297.03;;;16.32;81.73
12963;BME280;6546;49.882;8.666;2022-09-16T00:30:28;99298.47;;;16.42;79.16
12963;BME280;6546;49.882;8.666;2022-09-16T00:32:54;99300.91;;;16.48;77.81
12963;BME280;6546;49.882;8.666;2022-09-16T00:35:21;99312.84;;;16.55;76.80
12963;BME280;6546;49.882;8.666;2022-09-16T00:37:47;99305.75;;;16.60;75.46
12963;BME280;6546;49.882;8.666;2022-09-16T00:40:14;99304.34;;;16.49;79.84
12963;BME280;6546;49.882;8.666;2022-09-16T00:42:42;99297.28;;;16.52;76.80
12963;BME280;6546;49.882;8.666;2022-09-16T00:45:14;99300.97;;;16.45;80.09
12963;BME280;6546;49.882;8.666;2022-09-16T00:47:44;99298.59;;;16.37;81.99
12963;BME280;6546;49.882;8.666;2022-09-16T00:50:16;99297.66;;;16.40;80.08
12963;BME280;6546;49.882;8.666;2022-09-16T00:52:45;99301.13;;;16.40;79.94
12963;BME280;6546;49.882;8.666;2022-09-16T00:55:15;99302.75;;;16.44;79.04
12963;BME280;6546;49.882;8.666;2022-09-16T00:57:45;99297.31;;;16.51;76.43
12963;BME280;6546;49.882;8.666;2022-09-16T01:00:13;99301.75;;;16.49;76.75
12963;BME280;6546;49.882;8.666;2022-09-16T01:02:46;99291.09;;;16.55;75.83
12963;BME280;6546;49.882;8.666;2022-09-16T01:05:15;99295.00;;;16.41;78.70
12963;BME280;6546;49.882;8.666;2022-09-16T01:07:44;99286.25;;;16.42;75.87
12963;BME280;6546;49.882;8.666;2022-09-16T01:10:11;99283.78;;;16.38;77.97
12963;BME280;6546;49.882;8.666;2022-09-16T01:12:40;99286.16;;;16.45;76.64
12963;BME280;6546;49.882;8.666;2022-09-16T01:15:09;99290.78;;;16.37;79.79
12963;BME280;6546;49.882;8.666;2022-09-16T01:17:49;99286.00;;;16.22;80.68
12963;BME280;6546;49.882;8.666;2022-09-16T01:23:47;99295.75;;;16.17;82.41
12963;BME280;6546;49.882;8.666;2022-09-16T01:26:35;99293.25;;;16.14;82.10
12963;BME280;6546;49.882;8.666;2022-09-16T01:29:25;99285.41;;;16.14;82.04
12963;BME280;6546;49.882;8.666;2022-09-16T01:32:01;99285.28;;;16.17;82.97
12963;BME280;6546;49.882;8.666;2022-09-16T01:34:44;99283.78;;;16.10;81.51
12963;BME280;6546;49.882;8.666;2022-09-16T01:37:20;99290.38;;;16.21;80.21
12963;BME280;6546;49.882;8.666;2022-09-16T01:40:00;99295.72;;;16.18;81.08
12963;BME280;6546;49.882;8.666;2022-09-16T01:42:35;99303.56;;;16.17;82.25
12963;BME280;6546;49.882;8.666;2022-09-16T01:45:06;99298.97;;;16.25;79.04
12963;BME280;6546;49.882;8.666;2022-09-16T01:47:42;99295.28;;;16.32;77.25
12963;BME280;6546;49.882;8.666;2022-09-16T01:50:16;99302.50;;;16.24;78.77
12963;BME280;6546;49.882;8.666;2022-09-16T01:52:53;99309.69;;;16.16;82.22
12963;BME280;6546;49.882;8.666;2022-09-16T01:55:27;99306.41;;;16.09;82.34
12963;BME280;6546;49.882;8.666;2022-09-16T01:57:58;99301.72;;;16.20;81.33
12963;BME280;6546;49.882;8.666;2022-09-16T02:00:26;99298.13;;;16.25;79.21
12963;BME280;6546;49.882;8.666;2022-09-16T02:02:57;99293.84;;;16.22;80.04
12963;BME280;6546;49.882;8.666;2022-09-16T02:05:27;99293.84;;;16.22;80.36
12963;BME280;6546;49.882;8.666;2022-09-16T02:08:00;99300.78;;;16.23;78.35
12963;BME280;6546;49.882;8.666;2022-09-16T02:10:31;99295.66;;;16.20;78.91
12963;BME280;6546;49.882;8.666;2022-09-16T02:13:02;99297.44;;;16.18;81.44
12963;BME280;6546;49.882;8.666;2022-09-16T02:15:32;99297.44;;;16.18;78.14
12963;BME280;6546;49.882;8.666;2022-09-16T02:18:04;99301.25;;;16.08;82.97
12963;BME280;6546;49.882;8.666;2022-09-16T02:20:35;99304.03;;;16.02;82.64
12963;BME280;6546;49.882;8.666;2022-09-16T02:23:06;99301.66;;;15.94;83.17
12963;BME280;6546;49.882;8.666;2022-09-16T02:25:37;99299.84;;;15.96;82.80
12963;BME280;6546;49.882;8.666;2022-09-16T02:28:08;99299.88;;;15.94;83.19
12963;BME280;6546;49.882;8.666;2022-09-16T02:30:39;99298.72;;;16.05;81.56
12963;BME280;6546;49.882;8.666;2022-09-16T02:33:11;99297.91;;;16.03;78.48
12963;BME280;6546;49.882;8.666;2022-09-16T02:35:40;99298.06;;;15.96;81.18
12963;BME280;6546;49.882;8.666;2022-09-16T02:38:14;99302.56;;;15.93;79.84
12963;BME280;6546;49.882;8.666;2022-09-16T02:40:45;99293.03;;;15.90;80.38
12963;BME280;6546;49.882;8.666;2022-09-16T02:43:14;99298.06;;;15.96;79.80
12963;BME280;6546;49.882;8.666;2022-09-16T02:45:47;99292.13;;;15.93;80.03
12963;BME280;6546;49.882;8.666;2022-09-16T02:48:24;99302.56;;;15.91;80.25
12963;BME280;6546;49.882;8.666;2022-09-16T02:50:59;99297.16;;;15.99;79.44
12963;BME280;6546;49.882;8.666;2022-09-16T02:53:32;99298.19;;;15.93;80.69
12963;BME280;6546;49.882;8.666;2022-09-16T02:56:08;99303.44;;;15.92;78.60
12963;BME280;6546;49.882;8.666;2022-09-16T02:58:36;99286.84;;;15.94;79.78
12963;BME280;6546;49.882;8.666;2022-09-16T03:01:03;99286.13;;;15.89;79.33
12963;BME280;6546;49.882;8.666;2022-09-16T03:03:31;99286.97;;;15.90;79.24
12963;BME280;6546;49.882;8.666;2022-09-16T03:06:25;99283.59;;;15.86;77.95
12963;BME280;6546;49.882;8.666;2022-09-16T03:08:55;99289.72;;;15.85;77.94
12963;BME280;6546;49.882;8.666;2022-09-16T03:11:43;99289.88;;;15.79;79.03
12963;BME280;6546;49.882;8.666;2022-09-16T03:14:22;99288.91;;;15.83;79.91
12963;BME280;6546;49.882;8.666;2022-09-16T03:16:59;99295.09;;;15.79;80.49
12963;BME280;6546;49.882;8.666;2022-09-16T03:19:41;99289.88;;;15.79;80.33
12963;BME280;6546;49.882;8.666;2022-09-16T03:22:17;99287.38;;;15.76;78.18
12963;BME280;6546;49.882;8.666;2022-09-16T03:24:55;99289.81;;;15.82;78.29
12963;BME280;6546;49.882;8.666;2022-09-16T03:27:27;99298.25;;;15.90;79.20
12963;BME280;6546;49.882;8.666;2022-09-16T03:30:00;99296.84;;;15.80;79.69
12963;BME280;6546;49.882;8.666;2022-09-16T03:32:30;99295.94;;;15.80;79.40
12963;BME280;6546;49.882;8.666;2022-09-16T03:35:03;99291.63;;;15.80;79.75
12963;BME280;6546;49.882;8.666;2022-09-16T03:37:35;99292.47;;;15.81;79.87
12963;BME280;6546;49.882;8.666;2022-09-16T03:40:07;99287.34;;;15.78;79.17
12963;BME280;6546;49.882;8.666;2022-09-16T03:42:37;99296.72;;;15.83;79.42
12963;BME280;6546;49.882;8.666;2022-09-16T03:45:06;99292.13;;;15.91;77.16
12963;BME280;6546;49.882;8.666;2022-09-16T03:47:33;99284.84;;;15.73;79.32
12963;BME280;6546;49.882;8.666;2022-09-16T03:50:01;99287.63;;;15.67;80.64
12963;BME280;6546;49.882;8.666;2022-09-16T03:52:28;99293.75;;;15.66;80.14
12963;BME280;6546;49.882;8.666;2022-09-16T03:54:55;99284.94;;;15.70;81.27
12963;BME280;6546;49.882;8.666;2022-09-16T03:57:21;99285.91;;;15.67;81.92
12963;BME280;6546;49.882;8.666;2022-09-16T03:59:48;99280.50;;;15.74;81.01
12963;BME280;6546;49.882;8.666;2022-09-16T04:02:15;99278.91;;;15.68;82.71
12963;BME280;6546;49.882;8.666;2022-09-16T04:04:41;99273.81;;;15.63;83.16
12963;BME280;6546;49.882;8.666;2022-09-16T04:07:09;99286.00;;;15.61;82.83
12963;BME280;6546;49.882;8.666;2022-09-16T04:09:36;99283.34;;;15.63;83.35
12963;BME280;6546;49.882;8.666;2022-09-16T04:12:03;99272.03;;;15.64;82.96
12963;BME280;6546;49.882;8.666;2022-09-16T04:14:31;99286.81;;;15.65;83.96
12963;BME280;6546;49.882;8.666;2022-09-16T04:16:58;99277.03;;;15.73;81.01
12963;BME280;6546;49.882;8.666;2022-09-16T04:19:25;99277.19;;;15.67;81.26
12963;BME280;6546;49.882;8.666;2022-09-16T04:21:51;99264.47;;;15.55;82.69
12963;BME280;6546;49.882;8.666;2022-09-16T04:24:19;99265.22;;;15.60;81.62
12963;BME280;6546;49.882;8.666;2022-09-16T04:26:46;99262.69;;;15.57;82.94
12963;BME280;6546;49.882;8.666;2022-09-16T04:29:13;99260.75;;;15.65;80.32
12963;BME280;6546;49.882;8.666;2022-09-16T04:31:40;99274.66;;;15.64;81.47
12963;BME280;6546;49.882;8.666;2022-09-16T04:34:08;99275.59;;;15.61;82.95
12963;BME280;6546;49.882;8.666;2022-09-16T04:36:36;99260.75;;;15.65;80.72
12963;BME280;6546;49.882;8.666;2022-09-16T04:39:03;99267.72;;;15.63;81.09
12963;BME280;6546;49.882;8.666;2022-09-16T04:41:32;99275.53;;;15.64;80.53
12963;BME280;6546;49.882;8.666;2022-09-16T04:43:59;99279.84;;;15.65;79.56
12963;BME280;6546;49.882;8.666;2022-09-16T04:46:28;99278.09;;;15.66;77.94
12963;BME280;6546;49.882;8.666;2022-09-16T04:48:55;99271.28;;;15.60;80.07
12963;BME280;6546;49.882;8.666;2022-09-16T04:51:23;99270.63;;;15.52;83.50
12963;BME280;6546;49.882;8.666;2022-09-16T04:53:52;99266.97;;;15.59;80.59
12963;BME280;6546;49.882;8.666;2022-09-16T04:56:21;99266.28;;;15.53;82.46
12963;BME280;6546;49.882;8.666;2022-09-16T04:58:50;99270.44;;;15.58;81.77
12963;BME280;6546;49.882;8.666;2022-09-16T05:01:20;99266.34;;;15.50;83.58
12963;BME280;6546;49.882;8.666;2022-09-16T05:03:48;99261.31;;;15.43;83.89
12963;BME280;6546;49.882;8.666;2022-09-16T05:06:17;99257.88;;;15.41;83.32
12963;BME280;6546;49.882;8.666;2022-09-16T05:08:44;99263.75;;;15.50;83.04
12963;BME280;6546;49.882;8.666;2022-09-16T05:11:12;99263.59;;;15.54;83.39
12963;BME280;6546;49.882;8.666;2022-09-16T05:13:39;99257.81;;;15.44;83.92
12963;BME280;6546;49.882;8.666;2022-09-16T05:16:09;99268.09;;;15.51;83.84
12963;BME280;6546;49.882;8.666;2022-09-16T05:18:36;99272.91;;;15.63;82.28
12963;BME280;6546;49.882;8.666;2022-09-16T05:21:06;99269.44;;;15.64;82.01
12963;BME280;6546;49.882;8.666;2022-09-16T05:23:34;99271.22;;;15.62;83.16
12963;BME280;6546;49.882;8.666;2022-09-16T05:26:05;99262.69;;;15.57;83.23
12963;BME280;6546;49.882;8.666;2022-09-16T05:28:33;99273.19;;;15.54;83.94
12963;BME280;6546;49.882;8.666;2022-09-16T05:31:12;99271.97;;;15.67;82.29
12963;BME280;6546;49.882;8.666;2022-09-16T05:33:40;99276.19;;;15.71;81.36
12963;BME280;6546;49.882;8.666;2022-09-16T05:36:09;99272.72;;;15.72;79.75
12963;BME280;6546;49.882;8.666;2022-09-16T05:38:36;99267.66;;;15.66;80.87
12963;BME280;6546;49.882;8.666;2022-09-16T05:41:04;99271.41;;;15.56;84.19
12963;BME280;6546;49.882;8.666;2022-09-16T05:43:31;99265.97;;;15.65;81.96
12963;BME280;6546;49.882;8.666;2022-09-16T05:45:59;99270.28;;;15.66;83.52
12963;BME280;6546;49.882;8.666;2022-09-16T05:48:28;99261.75;;;15.59;85.30
12963;BME280;6546;49.882;8.666;2022-09-16T05:50:56;99275.78;;;15.55;85.77
12963;BME280;6546;49.882;8.666;2022-09-16T05:53:24;99282.72;;;15.55;86.49
12963;BME280;6546;49.882;8.666;2022-09-16T05:55:56;99285.31;;;15.55;85.45
12963;BME280;6546;49.882;8.666;2022-09-16T05:58:22;99279.25;;;15.54;85.95
12963;BME280;6546;49.882;8.666;2022-09-16T06:00:50;99290.38;;;15.61;86.38
12963;BME280;6546;49.882;8.666;2022-09-16T06:03:17;99279.63;;;15.73;84.10
12963;BME280;6546;49.882;8.666;2022-09-16T06:05:44;99286.47;;;15.77;83.68
12963;BME280;6546;49.882;8.666;2022-09-16T06:08:11;99283.59;;;15.86;81.45
12963;BME280;6546;49.882;8.666;2022-09-16T06:10:38;99278.59;;;15.79;81.46
12963;BME280;6546;49.882;8.666;2022-09-16T06:13:05;99274.94;;;15.86;81.26
12963;BME280;6546;49.882;8.666;2022-09-16T06:15:31;99277.66;;;15.81;80.97
12963;BME280;6546;49.882;8.666;2022-09-16T06:17:58;99278.59;;;15.79;82.00
12963;BME280;6546;49.882;8.666;2022-09-16T06:20:25;99281.06;;;15.83;81.33
12963;BME280;6546;49.882;8.666;2022-09-16T06:22:53;99277.56;;;15.84;81.24
12963;BME280;6546;49.882;8.666;2022-09-16T06:25:19;99285.38;;;15.84;82.04
12963;BME280;6546;49.882;8.666;2022-09-16T06:27:46;99277.41;;;15.90;81.55
12963;BME280;6546;49.882;8.666;2022-09-16T06:30:12;99272.19;;;15.90;81.02
12963;BME280;6546;49.882;8.666;2022-09-16T06:32:39;99271.28;;;15.91;81.38
12963;BME280;6546;49.882;8.666;2022-09-16T06:35:06;99278.03;;;15.99;80.30
12963;BME280;6546;49.882;8.666;2022-09-16T06:37:32;99278.94;;;15.98;81.30
12963;BME280;6546;49.882;8.666;2022-09-16T06:40:01;99265.88;;;15.98;81.07
12963;BME280;6546;49.882;8.666;2022-09-16T06:42:27;99274.16;;;16.12;80.16
12963;BME280;6546;49.882;8.666;2022-09-16T06:44:54;99273.06;;;16.19;80.04
12963;BME280;6546;49.882;8.666;2022-09-16T06:47:20;99277.19;;;16.26;78.96
12963;BME280;6546;49.882;8.666;2022-09-16T06:49:47;99267.34;;;16.34;78.10
12963;BME280;6546;49.882;8.666;2022-09-16T06:52:14;99270.09;;;16.31;77.86
12963;BME280;6546;49.882;8.666;2022-09-16T06:54:41;99269.19;;;16.32;79.77
12963;BME280;6546;49.882;8.666;2022-09-16T06:57:09;99264.03;;;16.29;79.45
12963;BME280;6546;49.882;8.666;2022-09-16T06:59:35;99265.66;;;16.33;78.78
12963;BME280;6546;49.882;8.666;2022-09-16T07:02:02;99274.16;;;16.40;77.19
12963;BME280;6546;49.882;8.666;2022-09-16T07:04:29;99267.56;;;16.28;79.11
12963;BME280;6546;49.882;8.666;2022-09-16T07:06:56;99265.94;;;16.24;77.96
12963;BME280;6546;49.882;8.666;2022-09-16T07:09:23;99266.56;;;16.32;78.65
12963;BME280;6546;49.882;8.666;2022-09-16T07:11:50;99267.34;;;16.34;79.63
12963;BME280;6546;49.882;8.666;2022-09-16T07:14:18;99265.50;;;16.39;76.99
12963;BME280;6546;49.882;8.666;2022-09-16T07:16:44;99264.97;;;16.55;74.50
12963;BME280;6546;49.882;8.666;2022-09-16T07:19:11;99275.44;;;16.55;74.44
12963;BME280;6546;49.882;8.666;2022-09-16T07:21:37;99271.13;;;16.54;73.55
12963;BME280;6546;49.882;8.666;2022-09-16T07:24:06;99275.72;;;16.45;74.96
12963;BME280;6546;49.882;8.666;2022-09-16T07:26:34;99270.91;;;16.60;72.97
12963;BME280;6546;49.882;8.666;2022-09-16T07:29:03;99277.72;;;16.65;72.87
12963;BME280;6546;49.882;8.666;2022-09-16T07:31:33;99275.84;;;16.69;71.30
12963;BME280;6546;49.882;8.666;2022-09-16T07:34:02;99277.94;;;16.58;73.03
12963;BME280;6546;49.882;8.666;2022-09-16T07:36:32;99279.66;;;16.59;73.57
12963;BME280;6546;49.882;8.666;2022-09-16T07:38:59;99275.34;;;16.58;73.18
12963;BME280;6546;49.882;8.666;2022-09-16T07:41:28;99282.56;;;16.50;73.48
12963;BME280;6546;49.882;8.666;2022-09-16T07:43:56;99281.66;;;16.51;74.28
12963;BME280;6546;49.882;8.666;2022-09-16T07:46:25;99283.16;;;16.58;73.52
12963;BME280;6546;49.882;8.666;2022-09-16T07:48:53;99282.66;;;16.46;74.29
12963;BME280;6546;49.882;8.666;2022-09-16T07:51:21;99292.09;;;16.51;73.73
12963;BME280;6546;49.882;8.666;2022-09-16T07:53:52;99288.56;;;16.52;70.87
12963;BME280;6546;49.882;8.666;2022-09-16T07:56:23;99286.31;;;16.41;69.72
12963;BME280;6546;49.882;8.666;2022-09-16T07:58:51;99286.78;;;16.26;73.96
12963;BME280;6546;49.882;8.666;2022-09-16T08:01:18;99291.38;;;16.17;74.97
12963;BME280;6546;49.882;8.666;2022-09-16T08:03:45;99293.75;;;16.25;74.52
12963;BME280;6546;49.882;8.666;2022-09-16T08:06:15;99299.31;;;16.42;71.46
12963;BME280;6546;49.882;8.666;2022-09-16T08:08:43;99301.75;;;16.49;72.91
12963;BME280;6546;49.882;8.666;2022-09-16T08:11:10;99291.25;;;16.50;72.77
12963;BME280;6546;49.882;8.666;2022-09-16T08:13:39;99296.31;;;16.55;72.87
12963;BME280;6546;49.882;8.666;2022-09-16T08:16:08;99296.03;;;16.64;72.66
12963;BME280;6546;49.882;8.666;2022-09-16T08:18:35;99307.28;;;16.66;73.13
12963;BME280;6546;49.882;8.666;2022-09-16T08:21:04;99310.75;;;16.66;71.76
12963;BME280;6546;49.882;8.666;2022-09-16T08:23:33;99304.22;;;16.53;70.12
12963;BME280;6546;49.882;8.666;2022-09-16T08:26:00;99308.28;;;16.62;71.45
12963;BME280;6546;49.882;8.666;2022-09-16T08:28:27;99304.84;;;16.60;71.53
12963;BME280;6546;49.882;8.666;2022-09-16T08:30:57;99309.75;;;16.42;69.03
12963;BME280;6546;49.882;8.666;2022-09-16T08:33:24;99301.41;;;16.31;69.36
12963;BME280;6546;49.882;8.666;2022-09-16T08:35:57;99299.44;;;16.38;71.12
12963;BME280;6546;49.882;8.666;2022-09-16T08:38:25;99298.13;;;16.53;72.57
12963;BME280;6546;49.882;8.666;2022-09-16T08:40:57;99291.69;;;16.64;72.63
12963;BME280;6546;49.882;8.666;2022-09-16T08:43:31;99302.63;;;17.02;69.32
12963;BME280;6546;49.882;8.666;2022-09-16T08:46:06;99293.75;;;17.08;69.79
12963;BME280;6546;49.882;8.666;2022-09-16T08:48:42;99291.34;;;17.27;66.82
12963;BME280;6546;49.882;8.666;2022-09-16T08:51:14;99292.59;;;17.41;66.40
12963;BME280;6546;49.882;8.666;2022-09-16T08:53:44;99301.13;;;17.46;67.83
12963;BME280;6546;49.882;8.666;2022-09-16T08:56:16;99297.84;;;17.41;66.10
12963;BME280;6546;49.882;8.666;2022-09-16T08:58:46;99296.81;;;17.45;63.57
12963;BME280;6546;49.882;8.666;2022-09-16T09:01:17;99301.81;;;17.52;64.35
12963;BME280;6546;49.882;8.666;2022-09-16T09:03:46;99304.81;;;17.41;65.41
12963;BME280;6546;49.882;8.666;2022-09-16T09:06:27;99312.00;;;17.34;64.27
12963;BME280;6546;49.882;8.666;2022-09-16T09:09:03;99306.25;;;17.25;64.58
12963;BME280;6546;49.882;8.666;2022-09-16T09:11:42;99300.34;;;17.19;66.78
12963;BME280;6546;49.882;8.666;2022-09-16T09:14:24;99304.22;;;17.33;66.63
12963;BME280;6546;49.882;8.666;2022-09-16T09:16:59;99302.97;;;17.44;63.75
12963;BME280;6546;49.882;8.666;2022-09-16T09:19:39;99300.72;;;17.34;64.87
12963;BME280;6546;49.882;8.666;2022-09-16T09:22:22;99303.97;;;17.40;61.99
12963;BME280;6546;49.882;8.666;2022-09-16T09:25:01;99302.06;;;17.44;60.99
12963;BME280;6546;49.882;8.666;2022-09-16T09:27:40;99298.50;;;17.46;64.62
12963;BME280;6546;49.882;8.666;2022-09-16T09:30:15;99284.00;;;17.63;59.91
12963;BME280;6546;49.882;8.666;2022-09-16T09:33:02;99294.66;;;17.82;60.21
12963;BME280;6546;49.882;8.666;2022-09-16T09:35:44;99292.09;;;17.80;58.69
12963;BME280;6546;49.882;8.666;2022-09-16T09:38:48;99286.09;;;17.78;60.32
12963;BME280;6546;49.882;8.666;2022-09-16T09:41:23;99286.66;;;17.61;64.27
12963;BME280;6546;49.882;8.666;2022-09-16T09:43:58;99287.09;;;17.74;58.34
12963;BME280;6546;49.882;8.666;2022-09-16T09:46:31;99285.34;;;17.73;60.18
12963;BME280;6546;49.882;8.666;2022-09-16T09:49:07;99286.63;;;17.86;57.84
12963;BME280;6546;49.882;8.666;2022-09-16T09:51:39;99287.19;;;17.94;57.49
12963;BME280;6546;49.882;8.666;2022-09-16T09:54:18;99281.19;;;17.92;56.46
12963;BME280;6546;49.882;8.666;2022-09-16T09:56:49;99276.16;;;17.86;54.67
12963;BME280;6546;49.882;8.666;2022-09-16T09:59:29;99265.81;;;18.07;55.72
12963;BME280;6546;49.882;8.666;2022-09-16T10:01:58;99265.50;;;18.14;56.88
12963;BME280;6546;49.882;8.666;2022-09-16T10:04:27;99267.47;;;18.31;53.50
12963;BME280;6546;49.882;8.666;2022-09-16T10:06:57;99270.91;;;18.33;55.49
12963;BME280;6546;49.882;8.666;2022-09-16T10:09:24;99270.16;;;18.30;53.67
12963;BME280;6546;49.882;8.666;2022-09-16T10:11:52;99266.50;;;18.34;53.28
12963;BME280;6546;49.882;8.666;2022-09-16T10:14:28;99260.53;;;18.30;55.79
12963;BME280;6546;49.882;8.666;2022-09-16T10:16:56;99269.16;;;18.32;55.63
12963;BME280;6546;49.882;8.666;2022-09-16T10:19:26;99274.47;;;18.31;54.56
12963;BME280;6546;49.882;8.666;2022-09-16T10:21:55;99269.16;;;18.32;54.52
12963;BME280;6546;49.882;8.666;2022-09-16T10:24:31;99271.13;;;18.27;54.18
12963;BME280;6546;49.882;8.666;2022-09-16T10:26:59;99260.53;;;18.30;54.55
12963;BME280;6546;49.882;8.666;2022-09-16T10:29:30;99267.38;;;18.34;53.93
12963;BME280;6546;49.882;8.666;2022-09-16T10:32:10;99269.16;;;18.32;54.30
12963;BME280;6546;49.882;8.666;2022-09-16T10:34:41;99274.78;;;18.23;53.95
12963;BME280;6546;49.882;8.666;2022-09-16T10:37:17;99265.50;;;18.14;57.05
12963;BME280;6546;49.882;8.666;2022-09-16T10:39:49;99266.91;;;18.23;57.88
12963;BME280;6546;49.882;8.666;2022-09-16T10:42:19;99267.47;;;18.31;57.20
12963;BME280;6546;49.882;8.666;2022-09-16T10:44:48;99267.19;;;18.39;53.37
12963;BME280;6546;49.882;8.666;2022-09-16T10:47:17;99270.91;;;18.33;54.09
12963;BME280;6546;49.882;8.666;2022-09-16T10:49:48;99269.88;;;18.37;54.72
12963;BME280;6546;49.882;8.666;2022-09-16T10:52:16;99268.69;;;18.44;54.57
12963;BME280;6546;49.882;8.666;2022-09-16T10:54:43;99271.59;;;18.15;54.09
12963;BME280;6546;49.882;8.666;2022-09-16T10:57:27;99273.84;;;17.79;55.88
12963;BME280;6546;49.882;8.666;2022-09-16T11:00:03;99268.72;;;17.51;56.18
12963;BME280;6546;49.882;8.666;2022-09-16T11:02:48;99266.44;;;17.41;56.49
12963;BME280;6546;49.882;8.666;2022-09-16T11:05:24;99276.22;;;17.36;59.38
12963;BME280;6546;49.882;8.666;2022-09-16T11:08:01;99264.25;;;17.29;57.24
12963;BME280;6546;49.882;8.666;2022-09-16T11:10:38;99266.00;;;17.54;60.05
12963;BME280;6546;49.882;8.666;2022-09-16T11:13:31;99270.63;;;17.70;59.25
12963;BME280;6546;49.882;8.666;2022-09-16T11:16:13;99264.09;;;17.82;59.38
12963;BME280;6546;49.882;8.666;2022-09-16T11:18:51;99267.34;;;17.89;56.73
12963;BME280;6546;49.882;8.666;2022-09-16T11:21:35;99261.03;;;17.94;56.50
12963;BME280;6546;49.882;8.666;2022-09-16T11:24:28;99265.25;;;17.99;56.54
12963;BME280;6546;49.882;8.666;2022-09-16T11:27:05;99258.56;;;18.13;54.78
12963;BME280;6546;49.882;8.666;2022-09-16T11:29:56;99262.16;;;18.11;54.21
12963;BME280;6546;49.882;8.666;2022-09-16T11:32:36;99267.69;;;18.03;58.53
12963;BME280;6546;49.882;8.666;2022-09-16T11:35:23;99270.69;;;18.16;57.15
12963;BME280;6546;49.882;8.666;2022-09-16T11:37:57;99272.97;;;18.25;56.55
12963;BME280;6546;49.882;8.666;2022-09-16T11:40:31;99270.66;;;18.39;57.68
12963;BME280;6546;49.882;8.666;2022-09-16T11:43:35;99279.72;;;18.53;56.76
12963;BME280;6546;49.882;8.666;2022-09-16T11:46:06;99272.22;;;18.65;55.80
12963;BME280;6546;49.882;8.666;2022-09-16T11:48:49;99274.78;;;18.67;54.15
12963;BME280;6546;49.882;8.666;2022-09-16T11:51:29;99262.59;;;18.66;53.19
12963;BME280;6546;49.882;8.666;2022-09-16T11:54:17;99266.72;;;18.50;54.09
12963;BME280;6546;49.882;8.666;2022-09-16T11:56:50;99270.16;;;18.52;53.39
12963;BME280;6546;49.882;8.666;2022-09-16T11:59:22;99260.06;;;18.42;57.33
12963;BME280;6546;49.882;8.666;2022-09-16T12:01:53;99256.94;;;18.55;55.12
12963;BME280;6546;49.882;8.666;2022-09-16T12:04:27;99257.59;;;18.60;56.07
12963;BME280;6546;49.882;8.666;2022-09-16T12:06:57;99264.44;;;18.64;55.75
12963;BME280;6546;49.882;8.666;2022-09-16T12:09:34;99261.00;;;18.62;55.87
12963;BME280;6546;49.882;8.666;2022-09-16T12:12:09;99252.38;;;18.60;57.02
12963;BME280;6546;49.882;8.666;2022-09-16T12:14:40;99237.94;;;18.72;53.64
12963;BME280;6546;49.882;8.666;2022-09-16T12:17:12;99242.44;;;18.68;53.68
12963;BME280;6546;49.882;8.666;2022-09-16T12:19:45;99241.44;;;18.72;53.04
12963;BME280;6546;49.882;8.666;2022-09-16T12:22:19;99254.06;;;18.61;54.13
12963;BME280;6546;49.882;8.666;2022-09-16T12:24:52;99236.53;;;18.63;53.56
12963;BME280;6546;49.882;8.666;2022-09-16T12:27:31;99254.06;;;18.61;52.64
12963;BME280;6546;49.882;8.666;2022-09-16T12:30:03;99256.25;;;18.50;54.19
12963;BME280;6546;49.882;8.666;2022-09-16T12:32:35;99268.59;;;18.48;52.76
12963;BME280;6546;49.882;8.666;2022-09-16T12:35:11;99262.13;;;18.34;53.81
12963;BME280;6546;49.882;8.666;2022-09-16T12:37:44;99261.56;;;18.26;56.82
12963;BME280;6546;49.882;8.666;2022-09-16T12:40:15;99277.72;;;18.37;55.37
12963;BME280;6546;49.882;8.666;2022-09-16T12:46:17;99273.19;;;18.19;58.60
12963;BME280;6546;49.882;8.666;2022-09-16T12:49:21;99264.66;;;17.90;60.87
12963;BME280;6546;49.882;8.666;2022-09-16T12:55:24;99264.78;;;17.39;67.96
12963;BME280;6546;49.882;8.666;2022-09-16T12:58:08;99260.06;;;17.49;63.66
12963;BME280;6546;49.882;8.666;2022-09-16T13:00:42;99257.25;;;17.55;63.24
12963;BME280;6546;49.882;8.666;2022-09-16T13:03:18;99251.34;;;17.50;64.35
12963;BME280;6546;49.882;8.666;2022-09-16T13:05:48;99252.09;;;17.53;63.10
12963;BME280;6546;49.882;8.666;2022-09-16T13:08:21;99244.06;;;17.58;60.05
12963;BME280;6546;49.882;8.666;2022-09-16T13:10:55;99251.28;;;17.51;61.81
12963;BME280;6546;49.882;8.666;2022-09-16T13:13:34;99253.44;;;17.63;58.87
12963;BME280;6546;49.882;8.666;2022-09-16T13:16:03;99250.75;;;17.65;57.09
12963;BME280;6546;49.882;8.666;2022-09-16T13:18:39;99248.50;;;17.56;57.42
12963;BME280;6546;49.882;8.666;2022-09-16T13:21:14;99252.81;;;17.57;58.83
12963;BME280;6546;49.882;8.666;2022-09-16T13:23:52;99260.50;;;17.61;57.24
12963;BME280;6546;49.882;8.666;2022-09-16T13:26:22;99257.00;;;17.61;57.13
12963;BME280;6546;49.882;8.666;2022-09-16T13:28:48;99249.97;;;17.63;56.64
12963;BME280;6546;49.882;8.666;2022-09-16T13:31:17;99247.56;;;17.57;57.58
12963;BME280;6546;49.882;8.666;2022-09-16T13:33:45;99246.69;;;17.58;57.13
12963;BME280;6546;49.882;8.666;2022-09-16T13:36:28;99243.25;;;17.56;58.03
12963;BME280;6546;49.882;8.666;2022-09-16T13:38:58;99239.03;;;17.52;60.34
12963;BME280;6546;49.882;8.666;2022-09-16T13:41:31;99236.53;;;17.49;60.79
12963;BME280;6546;49.882;8.666;2022-09-16T13:43:59;99236.41;;;17.53;59.59